createdAt,value
2023-01-13T00:00:31.085Z,0.30
2023-01-13T00:02:59.196Z,0.40
2023-01-13T00:05:28.193Z,0.20
2023-01-13T00:07:56.266Z,0.17
2023-01-13T00:10:24.159Z,0.10
2023-01-13T00:12:53.676Z,0.20
2023-01-13T00:15:21.566Z,0.10
2023-01-13T00:17:49.782Z,0.20
2023-01-13T00:20:18.709Z,0.20
2023-01-13T00:22:46.788Z,0.10
2023-01-13T00:25:14.683Z,0.20
2023-01-13T00:27:42.672Z,0.10
2023-01-13T00:30:13.061Z,0.20
2023-01-13T00:32:41.053Z,0.10
2023-01-13T00:35:09.835Z,0.20
2023-01-13T00:37:38.717Z,0.10
2023-01-13T00:40:07.727Z,0.10
2023-01-13T00:42:53.201Z,0.20
2023-01-13T00:45:22.443Z,0.20
2023-01-13T00:47:50.381Z,0.20
2023-01-13T00:50:18.441Z,0.20
2023-01-13T00:52:46.541Z,0.10
2023-01-13T00:55:14.421Z,0.20
2023-01-13T00:57:42.600Z,0.10
2023-01-13T01:00:11.824Z,0.20
2023-01-13T01:02:41.425Z,0.10
2023-01-13T01:05:10.067Z,0.20
2023-01-13T01:07:38.070Z,0.10
2023-01-13T01:10:06.785Z,0.10
2023-01-13T01:12:35.995Z,0.20
2023-01-13T01:15:05.995Z,0.20
2023-01-13T01:17:34.323Z,0.20
2023-01-13T01:20:03.574Z,0.10
2023-01-13T01:22:31.732Z,0.10
2023-01-13T01:24:59.855Z,0.20
2023-01-13T01:27:27.769Z,0.30
2023-01-13T01:29:55.756Z,0.13
2023-01-13T01:32:23.755Z,0.10
2023-01-13T01:34:51.997Z,0.20
2023-01-13T01:37:21.326Z,0.10
2023-01-13T01:39:49.212Z,0.20
2023-01-13T01:42:35.627Z,0.20
2023-01-13T01:45:11.500Z,0.17
2023-01-13T01:47:40.174Z,0.20
2023-01-13T01:50:09.243Z,0.20
2023-01-13T01:52:41.671Z,0.10
2023-01-13T01:55:13.550Z,0.20
2023-01-13T01:57:46.673Z,0.20
2023-01-13T02:00:15.336Z,0.20
2023-01-13T02:02:46.324Z,0.10
2023-01-13T02:05:14.790Z,0.10
2023-01-13T02:07:47.336Z,0.20
2023-01-13T02:10:18.260Z,0.20
2023-01-13T02:12:47.480Z,0.10
2023-01-13T02:15:19.061Z,0.17
2023-01-13T02:18:02.052Z,0.20
2023-01-13T02:20:57.862Z,0.20
2023-01-13T02:24:21.342Z,0.20
2023-01-13T02:27:23.570Z,0.30
2023-01-13T02:30:26.165Z,0.30
2023-01-13T02:33:10.817Z,0.57
2023-01-13T02:35:46.316Z,0.10
2023-01-13T02:38:16.156Z,0.30
2023-01-13T02:40:49.875Z,0.40
2023-01-13T02:43:41.623Z,0.30
2023-01-13T02:46:15.533Z,0.30
2023-01-13T02:48:46.689Z,0.23
2023-01-13T02:51:18.466Z,0.20
2023-01-13T02:53:51.662Z,0.50
2023-01-13T02:56:22.437Z,0.40
2023-01-13T02:58:51.271Z,0.50
2023-01-13T03:01:20.826Z,0.63
2023-01-13T03:03:50.207Z,0.40
2023-01-13T03:06:37.789Z,0.57
2023-01-13T03:09:13.166Z,1.00
2023-01-13T03:11:55.881Z,0.50
2023-01-13T03:14:36.439Z,0.30
2023-01-13T03:17:17.588Z,0.20
2023-01-13T03:19:54.896Z,0.20
2023-01-13T03:22:27.524Z,0.30
2023-01-13T03:25:01.453Z,0.30
2023-01-13T03:27:37.697Z,0.30
2023-01-13T03:30:10.496Z,0.50
2023-01-13T03:32:43.352Z,0.30
2023-01-13T03:35:16.640Z,0.30
2023-01-13T03:37:48.513Z,0.20
2023-01-13T03:40:21.220Z,0.50
2023-01-13T03:43:09.440Z,0.70
2023-01-13T03:45:40.745Z,0.70
2023-01-13T03:48:15.947Z,0.30
2023-01-13T03:50:49.303Z,0.30
2023-01-13T03:53:21.963Z,0.20
2023-01-13T03:55:56.691Z,0.20
2023-01-13T03:58:27.498Z,0.60
2023-01-13T04:01:01.138Z,0.43
2023-01-13T04:03:42.422Z,0.40
2023-01-13T04:06:15.527Z,0.20
2023-01-13T04:08:50.134Z,0.30
2023-01-13T04:11:23.327Z,1.30
2023-01-13T04:13:53.858Z,1.47
2023-01-13T04:16:22.320Z,0.77
2023-01-13T04:18:51.549Z,1.53
2023-01-13T04:21:19.804Z,1.27
2023-01-13T04:23:51.257Z,0.50
2023-01-13T04:26:19.800Z,0.40
2023-01-13T04:28:47.722Z,0.57
2023-01-13T04:31:15.869Z,0.27
2023-01-13T04:33:43.814Z,0.17
2023-01-13T04:36:13.393Z,0.10
2023-01-13T04:38:41.289Z,0.27
2023-01-13T04:41:09.279Z,0.27
2023-01-13T04:43:37.263Z,0.10
2023-01-13T04:46:05.340Z,0.30
2023-01-13T04:48:33.269Z,0.30
2023-01-13T04:51:01.590Z,0.40
2023-01-13T04:53:30.859Z,0.40
2023-01-13T04:55:58.773Z,0.33
2023-01-13T04:58:27.010Z,0.30
2023-01-13T05:00:55.320Z,0.23
2023-01-13T05:03:24.499Z,0.60
2023-01-13T05:05:53.001Z,0.37
2023-01-13T05:08:21.059Z,0.50
2023-01-13T05:10:50.450Z,0.43
2023-01-13T05:13:35.827Z,0.50
2023-01-13T05:16:17.710Z,0.30
2023-01-13T05:18:45.943Z,0.23
2023-01-13T05:21:27.821Z,0.20
2023-01-13T05:24:13.448Z,0.40
2023-01-13T05:26:42.817Z,0.27
2023-01-13T05:29:10.865Z,0.27
2023-01-13T05:31:38.828Z,0.30
2023-01-13T05:34:07.026Z,0.50
2023-01-13T05:36:34.991Z,0.30
2023-01-13T05:39:03.526Z,0.57
2023-01-13T05:41:48.876Z,0.40
2023-01-13T05:44:18.278Z,0.83
2023-01-13T05:46:46.294Z,0.50
2023-01-13T05:49:14.656Z,0.50
2023-01-13T05:51:42.635Z,0.63
2023-01-13T05:54:11.094Z,0.43
2023-01-13T05:56:39.008Z,0.40
2023-01-13T05:59:07.843Z,0.67
2023-01-13T06:01:37.399Z,0.67
2023-01-13T06:04:05.859Z,0.30
2023-01-13T06:06:33.995Z,0.70
2023-01-13T06:09:01.918Z,0.50
2023-01-13T06:11:30.585Z,0.50
2023-01-13T06:13:58.534Z,0.40
2023-01-13T06:16:26.674Z,0.40
2023-01-13T06:18:55.969Z,0.73
2023-01-13T06:21:24.716Z,0.50
2023-01-13T06:23:53.132Z,0.47
2023-01-13T06:26:22.090Z,0.63
2023-01-13T06:28:51.344Z,0.73
2023-01-13T06:31:20.257Z,0.60
2023-01-13T06:33:51.788Z,0.60
2023-01-13T06:36:23.702Z,1.10
2023-01-13T06:38:55.143Z,1.30
2023-01-13T06:41:43.749Z,1.33
2023-01-13T06:44:11.535Z,0.70
2023-01-13T06:46:39.787Z,0.60
2023-01-13T06:49:08.003Z,0.90
2023-01-13T06:51:37.523Z,0.60
2023-01-13T06:54:06.040Z,0.90
2023-01-13T06:56:34.253Z,0.77
2023-01-13T06:59:02.498Z,0.70
2023-01-13T07:01:31.115Z,0.67
2023-01-13T07:03:59.156Z,0.83
2023-01-13T07:06:27.189Z,0.80
2023-01-13T07:08:56.489Z,0.63
2023-01-13T07:11:25.267Z,0.63
2023-01-13T07:14:10.626Z,0.70
2023-01-13T07:16:38.755Z,0.67
2023-01-13T07:19:06.693Z,0.50
2023-01-13T07:21:35.117Z,0.63
2023-01-13T07:24:04.908Z,0.70
2023-01-13T07:26:32.853Z,0.57
2023-01-13T07:29:00.862Z,0.70
2023-01-13T07:31:28.945Z,0.70
2023-01-13T07:33:56.882Z,0.70
2023-01-13T07:36:24.956Z,0.77
2023-01-13T07:38:54.841Z,0.73
2023-01-13T07:41:42.249Z,0.70
2023-01-13T07:44:11.196Z,1.03
2023-01-13T07:46:39.926Z,0.70
2023-01-13T07:49:08.476Z,0.80
2023-01-13T07:51:38.425Z,0.70
2023-01-13T07:54:07.210Z,0.90
2023-01-13T07:56:36.833Z,1.00
2023-01-13T07:59:05.277Z,0.80
2023-01-13T08:01:33.421Z,0.90
2023-01-13T08:04:01.443Z,0.80
2023-01-13T08:06:29.570Z,0.60
2023-01-13T08:08:57.471Z,0.70
2023-01-13T08:11:25.771Z,0.60
2023-01-13T08:14:00.658Z,0.80
2023-01-13T08:16:28.787Z,0.60
2023-01-13T08:18:56.995Z,0.73
2023-01-13T08:21:25.038Z,0.57
2023-01-13T08:23:53.117Z,0.50
2023-01-13T08:26:21.155Z,0.80
2023-01-13T08:28:49.030Z,0.80
2023-01-13T08:31:20.078Z,0.70
2023-01-13T08:33:48.246Z,1.00
2023-01-13T08:36:18.376Z,0.80
2023-01-13T08:38:46.444Z,1.03
2023-01-13T08:41:36.417Z,0.80
2023-01-13T08:44:04.495Z,0.50
2023-01-13T08:46:33.796Z,1.60
2023-01-13T08:49:01.966Z,1.10
2023-01-13T08:51:30.026Z,0.90
2023-01-13T08:53:58.385Z,0.80
2023-01-13T08:56:26.305Z,1.00
2023-01-13T08:58:54.451Z,0.80
2023-01-13T09:01:24.107Z,0.80
2023-01-13T09:03:54.483Z,0.60
2023-01-13T09:06:22.632Z,1.40
2023-01-13T09:08:50.509Z,0.77
2023-01-13T09:11:38.520Z,1.20
2023-01-13T09:14:06.724Z,0.70
2023-01-13T09:16:34.675Z,0.80
2023-01-13T09:19:04.026Z,0.80
2023-01-13T09:21:31.911Z,1.13
2023-01-13T09:24:00.200Z,0.60
2023-01-13T09:26:28.122Z,0.60
2023-01-13T09:28:56.145Z,0.70
2023-01-13T09:31:24.102Z,1.23
2023-01-13T09:34:10.506Z,0.80
2023-01-13T09:36:39.890Z,0.90
2023-01-13T09:39:08.015Z,0.70
2023-01-13T09:41:59.563Z,0.80
2023-01-13T09:44:32.818Z,0.90
2023-01-13T09:47:06.253Z,1.00
2023-01-13T09:49:38.485Z,0.70
2023-01-13T09:52:14.974Z,0.83
2023-01-13T09:54:44.731Z,1.10
2023-01-13T09:57:15.366Z,1.20
2023-01-13T09:59:44.648Z,1.00
2023-01-13T10:02:41.590Z,1.20
2023-01-13T10:05:16.723Z,0.90
2023-01-13T10:07:51.968Z,1.23
2023-01-13T10:10:28.608Z,1.10
2023-01-13T10:13:15.274Z,1.20
2023-01-13T10:15:47.796Z,1.20
2023-01-13T10:18:22.866Z,0.90
2023-01-13T10:20:57.925Z,1.30
2023-01-13T10:23:53.436Z,1.30
2023-01-13T10:26:49.224Z,1.53
2023-01-13T10:29:24.796Z,1.13
2023-01-13T10:31:54.249Z,1.30
2023-01-13T10:34:23.642Z,1.10
2023-01-13T10:37:06.404Z,1.23
2023-01-13T10:39:43.405Z,1.50
2023-01-13T10:42:15.816Z,1.00
2023-01-13T10:44:52.585Z,1.20
2023-01-13T10:47:24.110Z,1.10
2023-01-13T10:50:06.720Z,1.37
2023-01-13T10:52:39.273Z,1.63
2023-01-13T10:55:26.966Z,1.30
2023-01-13T10:57:54.921Z,1.00
2023-01-13T11:00:30.764Z,1.27
2023-01-13T11:03:21.033Z,0.90
2023-01-13T11:05:51.546Z,1.10
2023-01-13T11:08:21.549Z,1.13
2023-01-13T11:10:54.008Z,1.17
2023-01-13T11:13:29.156Z,1.00
2023-01-13T11:16:04.520Z,1.20
2023-01-13T11:18:43.435Z,1.20
2023-01-13T11:21:23.357Z,1.73
2023-01-13T11:24:00.781Z,1.07
2023-01-13T11:26:42.031Z,1.20
2023-01-13T11:29:15.928Z,1.00
2023-01-13T11:31:49.493Z,1.50
2023-01-13T11:34:29.099Z,1.20
2023-01-13T11:37:00.356Z,1.30
2023-01-13T11:39:38.706Z,1.57
2023-01-13T11:42:24.472Z,1.27
2023-01-13T11:45:04.400Z,1.33
2023-01-13T11:47:33.656Z,1.40
2023-01-13T11:50:02.511Z,2.00
2023-01-13T11:52:43.103Z,1.37
2023-01-13T11:55:33.466Z,1.60
2023-01-13T11:58:18.050Z,1.70
2023-01-13T12:01:03.632Z,1.20
2023-01-13T12:03:36.584Z,1.37
2023-01-13T12:06:14.915Z,1.23
2023-01-13T12:09:09.883Z,1.53
2023-01-13T12:12:01.340Z,1.13
2023-01-13T12:14:40.649Z,1.37
2023-01-13T12:17:20.617Z,1.23
2023-01-13T12:19:51.955Z,1.30
2023-01-13T12:22:27.261Z,1.40
2023-01-13T12:25:01.771Z,1.50
2023-01-13T12:27:40.405Z,1.13
2023-01-13T12:30:24.554Z,1.20
2023-01-13T12:32:55.217Z,1.07
2023-01-13T12:35:37.685Z,1.33
2023-01-13T12:38:12.805Z,1.70
2023-01-13T12:40:52.117Z,1.57
2023-01-13T12:43:40.027Z,1.60
2023-01-13T12:46:41.612Z,1.77
2023-01-13T12:49:23.688Z,1.27
2023-01-13T12:52:18.334Z,1.50
2023-01-13T12:55:14.010Z,1.00
2023-01-13T12:58:16.224Z,1.30
2023-01-13T13:00:58.059Z,0.70
2023-01-13T13:03:34.514Z,0.80
2023-01-13T13:06:20.335Z,0.90
2023-01-13T13:09:01.708Z,1.00
2023-01-13T13:12:01.143Z,0.73
2023-01-13T13:15:03.764Z,0.93
2023-01-13T13:17:46.919Z,0.87
2023-01-13T13:20:55.140Z,2.23
2023-01-13T13:23:58.915Z,1.10
2023-01-13T13:26:48.053Z,0.97
2023-01-13T13:29:47.657Z,1.07
2023-01-13T13:32:38.704Z,1.00
2023-01-13T13:35:27.793Z,1.00
2023-01-13T13:38:25.143Z,0.97
2023-01-13T13:41:13.160Z,1.03
2023-01-13T13:44:00.988Z,0.90
2023-01-13T13:46:50.799Z,1.50
2023-01-13T13:49:21.294Z,1.00
2023-01-13T13:52:00.010Z,1.30
2023-01-13T13:54:28.773Z,1.10
2023-01-13T13:56:58.989Z,1.03
2023-01-13T13:59:30.568Z,0.97
2023-01-13T14:02:03.588Z,0.90
2023-01-13T14:04:35.648Z,1.10
2023-01-13T14:07:05.349Z,1.30
2023-01-13T14:09:44.935Z,1.10
2023-01-13T14:12:20.618Z,1.53
2023-01-13T14:14:50.604Z,1.07
2023-01-13T14:17:26.767Z,1.00
2023-01-13T14:19:58.944Z,1.00
2023-01-13T14:22:27.235Z,1.43
2023-01-13T14:24:57.706Z,1.10
2023-01-13T14:27:29.697Z,0.90
2023-01-13T14:29:59.951Z,1.03
2023-01-13T14:32:34.834Z,1.20
2023-01-13T14:35:02.801Z,1.27
2023-01-13T14:37:35.869Z,1.30
2023-01-13T14:40:04.297Z,1.20
2023-01-13T14:42:35.305Z,0.90
2023-01-13T14:45:03.801Z,0.93
2023-01-13T14:47:33.884Z,1.20
2023-01-13T14:50:05.719Z,1.30
2023-01-13T14:52:35.635Z,1.60
2023-01-13T14:55:27.770Z,1.30
2023-01-13T14:58:28.111Z,0.90
2023-01-13T15:01:27.547Z,0.97
2023-01-13T15:03:55.563Z,1.10
2023-01-13T15:06:25.697Z,1.03
2023-01-13T15:08:54.161Z,0.93
2023-01-13T15:11:25.864Z,1.43
2023-01-13T15:14:01.254Z,1.33
2023-01-13T15:16:33.908Z,1.60
2023-01-13T15:19:03.298Z,1.77
2023-01-13T15:21:31.222Z,1.50
2023-01-13T15:23:59.806Z,1.90
2023-01-13T15:26:30.054Z,1.60
2023-01-13T15:29:00.805Z,1.20
2023-01-13T15:31:29.686Z,1.73
2023-01-13T15:33:58.915Z,1.17
2023-01-13T15:36:29.344Z,1.20
2023-01-13T15:38:58.367Z,1.00
2023-01-13T15:41:44.472Z,3.10
2023-01-13T15:44:33.272Z,1.63
2023-01-13T15:47:03.557Z,1.40
2023-01-13T15:49:36.455Z,1.30
2023-01-13T15:52:05.790Z,1.30
2023-01-13T15:54:33.674Z,1.13
2023-01-13T15:57:02.380Z,0.90
2023-01-13T15:59:31.737Z,1.00
2023-01-13T16:01:59.668Z,1.10
2023-01-13T16:04:27.684Z,0.83
2023-01-13T16:06:55.541Z,0.90
2023-01-13T16:09:23.777Z,1.03
2023-01-13T16:11:51.665Z,0.83
2023-01-13T16:14:19.816Z,1.30
2023-01-13T16:16:49.000Z,1.27
2023-01-13T16:19:16.958Z,1.90
2023-01-13T16:21:45.276Z,1.27
2023-01-13T16:24:13.203Z,1.20
2023-01-13T16:26:41.490Z,1.20
2023-01-13T16:29:12.640Z,4.50
2023-01-13T16:31:40.690Z,3.33
2023-01-13T16:34:10.123Z,4.70
2023-01-13T16:36:38.098Z,2.97
2023-01-13T16:39:06.642Z,2.00
2023-01-13T16:41:35.588Z,2.07
2023-01-13T16:44:05.900Z,1.87
2023-01-13T16:46:34.677Z,1.30
2023-01-13T16:49:05.844Z,1.47
2023-01-13T16:51:35.227Z,1.50
2023-01-13T16:54:03.136Z,1.17
2023-01-13T16:56:32.784Z,1.17
2023-01-13T16:59:04.580Z,2.00
2023-01-13T17:01:35.311Z,1.10
2023-01-13T17:04:04.205Z,1.43
2023-01-13T17:06:37.074Z,1.80
2023-01-13T17:09:06.534Z,1.53
2023-01-13T17:11:34.610Z,1.37
2023-01-13T17:14:19.374Z,2.27
2023-01-13T17:16:48.327Z,1.53
2023-01-13T17:19:16.440Z,1.60
2023-01-13T17:21:47.161Z,1.30
2023-01-13T17:24:15.456Z,1.60
2023-01-13T17:26:47.299Z,1.33
2023-01-13T17:29:16.942Z,0.97
2023-01-13T17:31:45.161Z,1.57
2023-01-13T17:34:14.121Z,2.10
2023-01-13T17:36:43.448Z,1.43
2023-01-13T17:39:16.961Z,1.57
2023-01-13T17:41:45.141Z,1.63
2023-01-13T17:44:14.768Z,1.40
2023-01-13T17:46:42.957Z,1.33
2023-01-13T17:49:11.930Z,1.20
2023-01-13T17:51:40.112Z,2.60
2023-01-13T17:54:12.072Z,1.27
2023-01-13T17:56:42.097Z,1.53
2023-01-13T17:59:10.744Z,1.73
2023-01-13T18:01:39.171Z,1.30
2023-01-13T18:04:08.198Z,1.80
2023-01-13T18:06:36.301Z,1.70
2023-01-13T18:09:04.636Z,1.67
2023-01-13T18:11:32.485Z,1.53
2023-01-13T18:14:01.731Z,1.20
2023-01-13T18:16:31.825Z,1.40
2023-01-13T18:19:14.526Z,1.53
2023-01-13T18:22:01.014Z,1.97
2023-01-13T18:24:46.469Z,2.00
2023-01-13T18:27:23.045Z,1.70
2023-01-13T18:29:54.457Z,1.57
2023-01-13T18:32:24.326Z,1.77
2023-01-13T18:35:04.759Z,2.73
2023-01-13T18:37:35.878Z,2.77
2023-01-13T18:40:04.536Z,2.93
2023-01-13T18:42:50.450Z,3.73
2023-01-13T18:45:20.967Z,5.97
2023-01-13T18:47:48.911Z,5.80
2023-01-13T18:50:18.152Z,3.67
2023-01-13T18:52:46.281Z,3.70
2023-01-13T18:55:14.514Z,5.63
2023-01-13T18:57:42.498Z,4.73
2023-01-13T19:00:12.829Z,3.97
2023-01-13T19:02:42.460Z,2.70
2023-01-13T19:05:11.400Z,1.60
2023-01-13T19:07:39.576Z,1.83
2023-01-13T19:10:10.020Z,1.83
2023-01-13T19:12:38.202Z,1.83
2023-01-13T19:15:07.254Z,2.70
2023-01-13T19:17:36.081Z,2.80
2023-01-13T19:20:06.466Z,2.90
2023-01-13T19:22:35.917Z,2.10
2023-01-13T19:25:05.637Z,2.20
2023-01-13T19:27:33.570Z,3.03
2023-01-13T19:30:02.357Z,2.67
2023-01-13T19:32:33.314Z,2.00
2023-01-13T19:35:01.505Z,2.67
2023-01-13T19:37:33.512Z,2.23
2023-01-13T19:40:01.891Z,2.10
2023-01-13T19:42:47.334Z,2.40
2023-01-13T19:45:30.538Z,2.97
2023-01-13T19:48:01.677Z,1.93
2023-01-13T19:50:29.796Z,1.77
2023-01-13T19:52:59.553Z,1.67
2023-01-13T19:55:28.036Z,1.90
2023-01-13T19:57:56.301Z,2.57
2023-01-13T20:00:24.401Z,2.10
2023-01-13T20:02:53.148Z,1.53
2023-01-13T20:05:25.935Z,2.30
2023-01-13T20:07:54.560Z,1.53
2023-01-13T20:10:24.888Z,2.30
2023-01-13T20:12:52.821Z,2.33
2023-01-13T20:15:20.771Z,2.00
2023-01-13T20:17:48.861Z,3.77
2023-01-13T20:20:18.621Z,3.50
2023-01-13T20:22:46.638Z,2.13
2023-01-13T20:25:16.941Z,2.20
2023-01-13T20:27:47.525Z,2.93
2023-01-13T20:30:16.425Z,1.93
2023-01-13T20:32:45.269Z,1.90
2023-01-13T20:35:13.652Z,2.30
2023-01-13T20:37:43.274Z,2.10
2023-01-13T20:40:14.392Z,4.43
2023-01-13T20:42:45.115Z,3.27
2023-01-13T20:45:20.486Z,2.67
2023-01-13T20:47:48.715Z,1.97
2023-01-13T20:50:17.176Z,2.40
2023-01-13T20:52:45.779Z,1.67
2023-01-13T20:55:14.470Z,1.63
2023-01-13T20:57:42.864Z,1.50
2023-01-13T21:00:12.013Z,1.43
2023-01-13T21:02:42.094Z,1.70
2023-01-13T21:05:10.228Z,1.77
2023-01-13T21:07:38.635Z,1.57
2023-01-13T21:10:07.833Z,1.37
2023-01-13T21:12:53.363Z,1.60
2023-01-13T21:15:21.899Z,1.40
2023-01-13T21:18:10.349Z,1.53
2023-01-13T21:20:39.610Z,2.20
2023-01-13T21:23:08.476Z,1.53
2023-01-13T21:25:39.592Z,1.77
2023-01-13T21:28:10.420Z,1.47
2023-01-13T21:30:39.116Z,1.33
2023-01-13T21:33:08.894Z,1.40
2023-01-13T21:35:39.533Z,1.53
2023-01-13T21:38:07.473Z,1.97
2023-01-13T21:40:35.797Z,1.50
2023-01-13T21:43:21.296Z,1.53
2023-01-13T21:46:07.129Z,1.70
2023-01-13T21:48:36.693Z,1.60
2023-01-13T21:51:05.050Z,1.40
2023-01-13T21:53:33.245Z,1.63
2023-01-13T21:56:01.087Z,1.60
2023-01-13T21:58:29.414Z,2.30
2023-01-13T22:00:57.539Z,1.57
2023-01-13T22:03:25.661Z,1.67
2023-01-13T22:06:08.029Z,1.47
2023-01-13T22:08:38.782Z,1.90
2023-01-13T22:11:07.688Z,1.73
2023-01-13T22:14:04.573Z,1.67
2023-01-13T22:16:34.039Z,1.80
2023-01-13T22:19:02.289Z,2.20
2023-01-13T22:21:30.840Z,1.90
2023-01-13T22:24:01.064Z,2.30
2023-01-13T22:26:29.739Z,2.40
2023-01-13T22:28:58.095Z,1.77
2023-01-13T22:31:26.580Z,2.00
2023-01-13T22:33:56.099Z,2.77
2023-01-13T22:36:25.205Z,2.53
2023-01-13T22:38:56.513Z,5.77
2023-01-13T22:41:26.219Z,2.87
2023-01-13T22:43:54.473Z,2.90
2023-01-13T22:46:23.670Z,1.97
2023-01-13T22:48:53.895Z,1.90
2023-01-13T22:51:23.315Z,2.60
2023-01-13T22:53:51.905Z,3.57
2023-01-13T22:56:21.789Z,1.90
2023-01-13T22:58:54.299Z,2.27
2023-01-13T23:01:23.734Z,5.57
2023-01-13T23:03:52.655Z,3.00
2023-01-13T23:06:22.886Z,4.23
2023-01-13T23:08:51.179Z,8.70
2023-01-13T23:11:21.608Z,4.27
2023-01-13T23:13:51.362Z,3.30
2023-01-13T23:16:22.661Z,6.50
2023-01-13T23:18:51.174Z,2.93
2023-01-13T23:21:21.502Z,2.07
2023-01-13T23:23:50.305Z,5.57
2023-01-13T23:26:19.311Z,4.20
2023-01-13T23:28:47.887Z,2.73
2023-01-13T23:31:20.039Z,2.07
2023-01-13T23:33:49.028Z,2.43
2023-01-13T23:36:20.044Z,2.80
2023-01-13T23:38:48.622Z,1.90
2023-01-13T23:41:18.778Z,1.80
2023-01-13T23:43:52.051Z,1.93
2023-01-13T23:46:22.220Z,1.80
2023-01-13T23:48:51.150Z,1.80
2023-01-13T23:51:21.010Z,2.00
2023-01-13T23:53:50.677Z,1.60
2023-01-13T23:56:21.334Z,1.60
2023-01-13T23:58:50.683Z,1.67
